CST,Max TemperatureF,Mean TemperatureF,Min TemperatureF,Max Dew PointF,MeanDew PointF,Min DewpointF,Max Humidity, Mean Humidity, Min Humidity, Max Sea Level PressureIn, Mean Sea Level PressureIn, Min Sea Level PressureIn, Max VisibilityMiles, Mean VisibilityMiles, Min VisibilityMiles, Max Wind SpeedMPH, Mean Wind SpeedMPH, Max Gust SpeedMPH,PrecipitationIn, CloudCover, Events, WindDirDegrees
2011-11-1,64,49,34,44,37,30,89,66,46,30.15,30.09,30.01,10,9,6,16,8,,0.00,0,,155
2011-11-2,63,55,45,45,40,35,82,63,48,30.06,30.02,29.95,10,10,6,20,11,29,0.00,3,,164
2011-11-3,46,42,39,41,39,34,89,80,66,30.20,30.04,29.96,10,10,8,25,16,36,0.14,7,Rain,18
2011-11-4,53,41,30,36,32,28,93,76,40,30.34,30.27,30.19,10,9,2,10,6,,0.00,1,,17
2011-11-5,55,44,34,35,31,26,82,61,45,30.28,30.20,30.05,10,10,10,13,8,,0.00,0,,138
2011-11-6,57,49,41,45,42,31,74,67,60,30.10,30.03,29.98,10,10,8,23,13,36,0.00,5,,173
2011-11-7,55,52,48,47,45,42,87,77,69,30.22,30.17,30.12,10,8,5,12,4,,0.07,8,Rain,109
2011-11-8,51,48,45,46,44,42,93,89,82,30.12,30.01,29.89,10,4,2,20,12,28,1.14,8,Rain,27
2011-11-9,59,46,34,55,43,29,94,86,73,29.98,29.69,29.49,10,6,2,30,12,38,0.38,7,Rain,316
2011-11-10,37,34,28,29,27,25,85,73,65,30.05,30.00,29.95,10,10,6,22,12,28,0.00,4,Rain,257
2011-11-11,44,36,27,29,27,24,89,73,51,30.04,29.89,29.76,10,10,7,14,8,,0.00,1,,180
2011-11-12,57,44,30,46,35,27,88,67,45,29.81,29.72,29.55,10,10,8,22,10,31,0.00,1,,167
2011-11-13,68,57,43,51,41,28,80,60,31,29.63,29.46,29.30,10,10,10,30,18,45,0.00,3,,200
2011-11-14,52,43,34,40,37,29,89,79,61,29.74,29.64,29.57,10,9,7,7,4,,0.00,2,,197
2011-11-15,61,44,28,39,33,27,96,74,38,29.87,29.76,29.70,10,7,0,18,4,26,0.00,0,Fog,203
2011-11-16,41,34,26,25,16,9,63,48,27,30.17,30.06,29.88,10,10,10,18,13,30,0.00,0,,279
2011-11-17,36,30,23,17,14,11,72,58,36,30.24,30.20,30.14,10,10,10,20,10,29,0.00,0,,229
2011-11-18,50,36,21,22,19,15,75,44,29,30.19,29.99,29.89,10,10,10,28,15,41,0.00,0,,172
2011-11-19,55,47,39,48,37,22,80,63,42,29.92,29.81,29.72,10,10,8,26,15,34,0.00,6,Rain,181
2011-11-20,48,42,35,40,32,28,82,71,61,30.31,30.19,29.93,10,10,8,20,12,32,0.00,6,,356
2011-11-21,46,41,36,36,33,30,86,74,63,30.33,30.26,30.18,10,9,7,12,8,17,0.00,6,,42
2011-11-22,42,39,36,38,36,32,89,84,76,30.19,29.99,29.84,8,6,2,16,10,23,0.06,8,Rain,14
2011-11-23,46,38,30,36,32,28,93,83,58,30.23,30.19,30.05,10,5,2,12,6,,0.00,3,,261
2011-11-24,46,42,39,41,39,36,93,87,82,30.22,30.16,30.05,6,4,2,18,13,24,0.00,7,,185
2011-11-25,55,46,37,45,41,34,89,77,64,30.04,29.94,29.86,10,8,5,20,13,26,0.00,0,,175
2011-11-26,53,48,42,52,48,39,94,88,71,29.88,29.80,29.75,10,5,2,17,10,21,0.72,7,Rain,212
2011-11-27,43,38,34,40,32,26,93,82,70,30.15,29.97,29.79,10,9,2,18,12,24,0.04,8,Rain,321
2011-11-28,39,36,30,30,27,25,82,73,67,30.17,30.09,29.96,10,10,8,16,10,26,0.00,7,,348
2011-11-29,43,36,28,32,26,19,86,68,59,30.02,29.94,29.89,10,10,8,33,19,45,0.00,5,,347
2011-11-30,43,32,21,20,17,10,78,59,27,30.17,30.09,30.00,10,10,10,12,8,,0.00,0,,245